sensor_id;sensor_type;location;lat;lon;timestamp;P1;durP1;ratioP1;P2;durP2;ratioP2
66421;SDS011;53228;51.380;0.098;2023-09-12T00:01:17;22.10;;;8.93;;
66421;SDS011;53228;51.380;0.098;2023-09-12T00:03:45;20.23;;;9.77;;
66421;SDS011;53228;51.380;0.098;2023-09-12T00:06:13;23.40;;;10.20;;
66421;SDS011;53228;51.380;0.098;2023-09-12T00:08:40;21.42;;;10.80;;
66421;SDS011;53228;51.380;0.098;2023-09-12T00:11:09;25.70;;;10.65;;
66421;SDS011;53228;51.380;0.098;2023-09-12T00:13:39;22.15;;;10.32;;
66421;SDS011;53228;51.380;0.098;2023-09-12T00:16:07;25.67;;;10.07;;
66421;SDS011;53228;51.380;0.098;2023-09-12T00:18:38;25.35;;;10.35;;
66421;SDS011;53228;51.380;0.098;2023-09-12T00:21:07;23.85;;;10.93;;
66421;SDS011;53228;51.380;0.098;2023-09-12T00:23:34;23.55;;;11.52;;
66421;SDS011;53228;51.380;0.098;2023-09-12T00:26:02;24.60;;;10.57;;
66421;SDS011;53228;51.380;0.098;2023-09-12T00:28:30;21.85;;;10.30;;
66421;SDS011;53228;51.380;0.098;2023-09-12T00:30:58;23.58;;;10.45;;
66421;SDS011;53228;51.380;0.098;2023-09-12T00:33:25;25.63;;;11.95;;
66421;SDS011;53228;51.380;0.098;2023-09-12T00:35:53;28.02;;;11.38;;
66421;SDS011;53228;51.380;0.098;2023-09-12T00:38:21;22.20;;;10.20;;
66421;SDS011;53228;51.380;0.098;2023-09-12T00:40:48;28.08;;;11.68;;
66421;SDS011;53228;51.380;0.098;2023-09-12T00:43:16;27.30;;;11.77;;
66421;SDS011;53228;51.380;0.098;2023-09-12T00:45:44;26.55;;;12.50;;
66421;SDS011;53228;51.380;0.098;2023-09-12T00:48:12;25.73;;;11.80;;
66421;SDS011;53228;51.380;0.098;2023-09-12T00:50:40;28.55;;;12.90;;
66421;SDS011;53228;51.380;0.098;2023-09-12T00:53:10;31.77;;;12.63;;
66421;SDS011;53228;51.380;0.098;2023-09-12T00:55:39;31.70;;;12.40;;
66421;SDS011;53228;51.380;0.098;2023-09-12T00:58:12;27.38;;;12.68;;
66421;SDS011;53228;51.380;0.098;2023-09-12T01:00:41;28.33;;;12.88;;
66421;SDS011;53228;51.380;0.098;2023-09-12T01:03:09;32.15;;;13.07;;
66421;SDS011;53228;51.380;0.098;2023-09-12T01:05:37;28.55;;;12.40;;
66421;SDS011;53228;51.380;0.098;2023-09-12T01:08:05;28.85;;;13.05;;
66421;SDS011;53228;51.380;0.098;2023-09-12T01:10:32;28.42;;;12.30;;
66421;SDS011;53228;51.380;0.098;2023-09-12T01:13:00;24.00;;;12.23;;
66421;SDS011;53228;51.380;0.098;2023-09-12T01:15:29;24.08;;;11.43;;
66421;SDS011;53228;51.380;0.098;2023-09-12T01:17:56;20.13;;;11.05;;
66421;SDS011;53228;51.380;0.098;2023-09-12T01:20:29;19.20;;;10.90;;
66421;SDS011;53228;51.380;0.098;2023-09-12T01:28:31;13.73;;;7.70;;
66421;SDS011;53228;51.380;0.098;2023-09-12T01:31:05;11.90;;;7.22;;
66421;SDS011;53228;51.380;0.098;2023-09-12T01:33:33;12.15;;;6.55;;
66421;SDS011;53228;51.380;0.098;2023-09-12T01:36:00;10.85;;;6.32;;
66421;SDS011;53228;51.380;0.098;2023-09-12T01:38:29;12.68;;;6.70;;
66421;SDS011;53228;51.380;0.098;2023-09-12T01:40:57;10.52;;;6.50;;
66421;SDS011;53228;51.380;0.098;2023-09-12T01:43:25;11.48;;;6.63;;
66421;SDS011;53228;51.380;0.098;2023-09-12T01:45:55;9.88;;;5.75;;
66421;SDS011;53228;51.380;0.098;2023-09-12T01:48:26;10.75;;;5.85;;
66421;SDS011;53228;51.380;0.098;2023-09-12T01:51:01;8.13;;;4.82;;
66421;SDS011;53228;51.380;0.098;2023-09-12T01:53:30;12.00;;;4.90;;
66421;SDS011;53228;51.380;0.098;2023-09-12T01:56:00;9.88;;;5.72;;
66421;SDS011;53228;51.380;0.098;2023-09-12T01:58:28;8.73;;;5.30;;
66421;SDS011;53228;51.380;0.098;2023-09-12T02:00:56;9.05;;;5.28;;
66421;SDS011;53228;51.380;0.098;2023-09-12T02:03:24;11.63;;;5.78;;
66421;SDS011;53228;51.380;0.098;2023-09-12T02:05:52;11.25;;;5.57;;
66421;SDS011;53228;51.380;0.098;2023-09-12T02:08:19;12.07;;;5.90;;
66421;SDS011;53228;51.380;0.098;2023-09-12T02:10:47;13.02;;;5.68;;
66421;SDS011;53228;51.380;0.098;2023-09-12T02:13:15;9.30;;;5.50;;
66421;SDS011;53228;51.380;0.098;2023-09-12T02:15:42;9.98;;;5.07;;
66421;SDS011;53228;51.380;0.098;2023-09-12T02:18:10;12.15;;;5.03;;
66421;SDS011;53228;51.380;0.098;2023-09-12T02:20:40;10.82;;;5.10;;
66421;SDS011;53228;51.380;0.098;2023-09-12T02:23:11;10.50;;;4.65;;
66421;SDS011;53228;51.380;0.098;2023-09-12T02:25:39;9.48;;;5.35;;
66421;SDS011;53228;51.380;0.098;2023-09-12T02:28:06;8.75;;;4.65;;
66421;SDS011;53228;51.380;0.098;2023-09-12T02:30:34;9.60;;;4.35;;
66421;SDS011;53228;51.380;0.098;2023-09-12T02:33:07;12.40;;;5.30;;
66421;SDS011;53228;51.380;0.098;2023-09-12T02:35:35;9.60;;;4.75;;
66421;SDS011;53228;51.380;0.098;2023-09-12T02:38:03;9.00;;;4.85;;
66421;SDS011;53228;51.380;0.098;2023-09-12T02:40:30;7.75;;;4.53;;
66421;SDS011;53228;51.380;0.098;2023-09-12T02:42:58;8.50;;;4.95;;
66421;SDS011;53228;51.380;0.098;2023-09-12T02:45:25;7.43;;;4.68;;
66421;SDS011;53228;51.380;0.098;2023-09-12T02:47:54;7.18;;;4.57;;
66421;SDS011;53228;51.380;0.098;2023-09-12T02:50:21;9.18;;;4.47;;
66421;SDS011;53228;51.380;0.098;2023-09-12T02:52:49;7.97;;;4.45;;
66421;SDS011;53228;51.380;0.098;2023-09-12T02:55:16;6.32;;;4.10;;
66421;SDS011;53228;51.380;0.098;2023-09-12T02:57:44;5.63;;;3.75;;
66421;SDS011;53228;51.380;0.098;2023-09-12T03:00:12;10.20;;;4.00;;
66421;SDS011;53228;51.380;0.098;2023-09-12T03:02:40;6.88;;;4.20;;
66421;SDS011;53228;51.380;0.098;2023-09-12T03:05:08;7.10;;;4.28;;
66421;SDS011;53228;51.380;0.098;2023-09-12T03:07:36;7.55;;;3.58;;
66421;SDS011;53228;51.380;0.098;2023-09-12T03:10:04;6.05;;;3.85;;
66421;SDS011;53228;51.380;0.098;2023-09-12T03:12:32;6.63;;;3.72;;
66421;SDS011;53228;51.380;0.098;2023-09-12T03:15:00;9.48;;;4.10;;
66421;SDS011;53228;51.380;0.098;2023-09-12T03:17:28;7.68;;;3.90;;
66421;SDS011;53228;51.380;0.098;2023-09-12T03:19:56;5.00;;;3.67;;
66421;SDS011;53228;51.380;0.098;2023-09-12T03:22:23;7.63;;;3.50;;
66421;SDS011;53228;51.380;0.098;2023-09-12T03:24:51;8.63;;;3.50;;
66421;SDS011;53228;51.380;0.098;2023-09-12T03:27:19;5.72;;;3.65;;
66421;SDS011;53228;51.380;0.098;2023-09-12T03:29:47;5.25;;;3.45;;
66421;SDS011;53228;51.380;0.098;2023-09-12T03:32:15;6.20;;;3.20;;
66421;SDS011;53228;51.380;0.098;2023-09-12T03:34:42;4.82;;;3.47;;
66421;SDS011;53228;51.380;0.098;2023-09-12T03:37:10;6.93;;;3.55;;
66421;SDS011;53228;51.380;0.098;2023-09-12T03:39:38;5.05;;;3.50;;
66421;SDS011;53228;51.380;0.098;2023-09-12T03:42:06;8.98;;;3.40;;
66421;SDS011;53228;51.380;0.098;2023-09-12T03:44:33;6.65;;;3.63;;
66421;SDS011;53228;51.380;0.098;2023-09-12T03:47:01;7.95;;;3.55;;
66421;SDS011;53228;51.380;0.098;2023-09-12T03:49:29;4.50;;;3.35;;
66421;SDS011;53228;51.380;0.098;2023-09-12T03:51:56;6.20;;;3.58;;
66421;SDS011;53228;51.380;0.098;2023-09-12T03:54:25;4.82;;;3.28;;
66421;SDS011;53228;51.380;0.098;2023-09-12T03:56:53;6.32;;;3.20;;
66421;SDS011;53228;51.380;0.098;2023-09-12T03:59:21;4.93;;;3.53;;
66421;SDS011;53228;51.380;0.098;2023-09-12T04:01:48;5.57;;;3.33;;
66421;SDS011;53228;51.380;0.098;2023-09-12T04:04:16;7.20;;;3.35;;
66421;SDS011;53228;51.380;0.098;2023-09-12T04:06:44;5.05;;;3.45;;
66421;SDS011;53228;51.380;0.098;2023-09-12T04:09:12;4.68;;;3.15;;
66421;SDS011;53228;51.380;0.098;2023-09-12T04:11:39;5.40;;;3.03;;
66421;SDS011;53228;51.380;0.098;2023-09-12T04:14:14;6.03;;;3.47;;
66421;SDS011;53228;51.380;0.098;2023-09-12T04:16:41;4.97;;;3.50;;
66421;SDS011;53228;51.380;0.098;2023-09-12T04:19:10;5.40;;;3.88;;
66421;SDS011;53228;51.380;0.098;2023-09-12T04:21:38;5.28;;;3.83;;
66421;SDS011;53228;51.380;0.098;2023-09-12T04:24:06;6.05;;;3.63;;
66421;SDS011;53228;51.380;0.098;2023-09-12T04:26:34;5.18;;;3.35;;
66421;SDS011;53228;51.380;0.098;2023-09-12T04:29:01;5.18;;;3.75;;
66421;SDS011;53228;51.380;0.098;2023-09-12T04:31:29;6.32;;;3.85;;
66421;SDS011;53228;51.380;0.098;2023-09-12T04:33:57;4.45;;;3.33;;
66421;SDS011;53228;51.380;0.098;2023-09-12T04:36:25;4.93;;;3.22;;
66421;SDS011;53228;51.380;0.098;2023-09-12T04:38:53;5.35;;;3.97;;
66421;SDS011;53228;51.380;0.098;2023-09-12T04:41:21;6.97;;;4.32;;
66421;SDS011;53228;51.380;0.098;2023-09-12T04:43:48;7.22;;;4.45;;
66421;SDS011;53228;51.380;0.098;2023-09-12T04:46:16;8.07;;;4.70;;
66421;SDS011;53228;51.380;0.098;2023-09-12T04:48:44;6.75;;;3.70;;
66421;SDS011;53228;51.380;0.098;2023-09-12T04:51:12;6.40;;;3.88;;
66421;SDS011;53228;51.380;0.098;2023-09-12T04:53:40;6.88;;;3.78;;
66421;SDS011;53228;51.380;0.098;2023-09-12T04:56:07;5.18;;;3.30;;
66421;SDS011;53228;51.380;0.098;2023-09-12T04:58:37;5.15;;;3.53;;
66421;SDS011;53228;51.380;0.098;2023-09-12T05:01:05;6.55;;;3.88;;
66421;SDS011;53228;51.380;0.098;2023-09-12T05:03:33;7.95;;;4.10;;
66421;SDS011;53228;51.380;0.098;2023-09-12T05:06:00;5.85;;;3.22;;
66421;SDS011;53228;51.380;0.098;2023-09-12T05:08:29;5.28;;;3.17;;
66421;SDS011;53228;51.380;0.098;2023-09-12T05:10:57;4.68;;;3.08;;
66421;SDS011;53228;51.380;0.098;2023-09-12T05:13:24;4.50;;;3.28;;
66421;SDS011;53228;51.380;0.098;2023-09-12T05:15:52;4.00;;;3.35;;
66421;SDS011;53228;51.380;0.098;2023-09-12T05:18:20;9.77;;;3.55;;
66421;SDS011;53228;51.380;0.098;2023-09-12T05:20:48;4.60;;;3.30;;
66421;SDS011;53228;51.380;0.098;2023-09-12T05:23:16;7.07;;;3.28;;
66421;SDS011;53228;51.380;0.098;2023-09-12T05:25:43;4.00;;;3.10;;
66421;SDS011;53228;51.380;0.098;2023-09-12T05:28:11;5.32;;;2.90;;
66421;SDS011;53228;51.380;0.098;2023-09-12T05:30:45;5.38;;;3.33;;
66421;SDS011;53228;51.380;0.098;2023-09-12T05:33:14;3.83;;;2.65;;
66421;SDS011;53228;51.380;0.098;2023-09-12T05:35:42;4.80;;;3.30;;
66421;SDS011;53228;51.380;0.098;2023-09-12T05:38:11;5.72;;;3.15;;
66421;SDS011;53228;51.380;0.098;2023-09-12T05:40:39;4.30;;;2.60;;
66421;SDS011;53228;51.380;0.098;2023-09-12T05:43:07;4.82;;;3.22;;
66421;SDS011;53228;51.380;0.098;2023-09-12T05:45:34;3.92;;;2.92;;
66421;SDS011;53228;51.380;0.098;2023-09-12T05:48:03;4.15;;;3.17;;
66421;SDS011;53228;51.380;0.098;2023-09-12T05:50:33;5.22;;;3.13;;
66421;SDS011;53228;51.380;0.098;2023-09-12T05:53:01;5.15;;;3.08;;
66421;SDS011;53228;51.380;0.098;2023-09-12T05:55:29;5.03;;;3.28;;
66421;SDS011;53228;51.380;0.098;2023-09-12T05:57:57;4.03;;;2.53;;
66421;SDS011;53228;51.380;0.098;2023-09-12T06:00:24;4.35;;;2.97;;
66421;SDS011;53228;51.380;0.098;2023-09-12T06:02:53;4.60;;;2.47;;
66421;SDS011;53228;51.380;0.098;2023-09-12T06:05:21;2.50;;;2.00;;
66421;SDS011;53228;51.380;0.098;2023-09-12T06:07:48;3.03;;;2.03;;
66421;SDS011;53228;51.380;0.098;2023-09-12T06:10:16;5.03;;;1.95;;
66421;SDS011;53228;51.380;0.098;2023-09-12T06:12:44;2.92;;;1.77;;
66421;SDS011;53228;51.380;0.098;2023-09-12T06:15:11;3.17;;;2.00;;
66421;SDS011;53228;51.380;0.098;2023-09-12T06:17:39;2.28;;;1.63;;
66421;SDS011;53228;51.380;0.098;2023-09-12T06:20:07;4.63;;;1.80;;
66421;SDS011;53228;51.380;0.098;2023-09-12T06:22:35;4.00;;;1.80;;
66421;SDS011;53228;51.380;0.098;2023-09-12T06:25:03;3.38;;;2.17;;
66421;SDS011;53228;51.380;0.098;2023-09-12T06:27:31;1.65;;;1.50;;
66421;SDS011;53228;51.380;0.098;2023-09-12T06:29:59;3.17;;;1.95;;
66421;SDS011;53228;51.380;0.098;2023-09-12T06:32:26;2.70;;;1.70;;
66421;SDS011;53228;51.380;0.098;2023-09-12T06:34:54;2.10;;;1.50;;
66421;SDS011;53228;51.380;0.098;2023-09-12T06:37:22;3.45;;;1.77;;
66421;SDS011;53228;51.380;0.098;2023-09-12T06:39:50;2.70;;;1.48;;
66421;SDS011;53228;51.380;0.098;2023-09-12T06:42:18;4.45;;;1.73;;
66421;SDS011;53228;51.380;0.098;2023-09-12T06:44:46;1.85;;;1.20;;
66421;SDS011;53228;51.380;0.098;2023-09-12T06:47:13;2.35;;;1.60;;
66421;SDS011;53228;51.380;0.098;2023-09-12T06:49:41;1.70;;;1.50;;
66421;SDS011;53228;51.380;0.098;2023-09-12T06:52:09;1.98;;;1.50;;
66421;SDS011;53228;51.380;0.098;2023-09-12T06:54:37;3.42;;;1.15;;
66421;SDS011;53228;51.380;0.098;2023-09-12T06:57:05;2.13;;;1.13;;
66421;SDS011;53228;51.380;0.098;2023-09-12T06:59:32;1.30;;;1.13;;
66421;SDS011;53228;51.380;0.098;2023-09-12T07:02:00;1.05;;;0.77;;
66421;SDS011;53228;51.380;0.098;2023-09-12T07:04:28;1.55;;;1.15;;
66421;SDS011;53228;51.380;0.098;2023-09-12T07:06:56;1.63;;;0.90;;
66421;SDS011;53228;51.380;0.098;2023-09-12T07:09:24;0.77;;;0.68;;
66421;SDS011;53228;51.380;0.098;2023-09-12T07:11:52;0.98;;;0.88;;
66421;SDS011;53228;51.380;0.098;2023-09-12T07:14:20;1.05;;;0.90;;
66421;SDS011;53228;51.380;0.098;2023-09-12T07:16:48;2.63;;;1.00;;
66421;SDS011;53228;51.380;0.098;2023-09-12T07:19:16;1.45;;;0.80;;
66421;SDS011;53228;51.380;0.098;2023-09-12T07:21:43;0.90;;;0.80;;
66421;SDS011;53228;51.380;0.098;2023-09-12T07:24:11;0.70;;;0.70;;
66421;SDS011;53228;51.380;0.098;2023-09-12T07:26:39;1.17;;;0.75;;
66421;SDS011;53228;51.380;0.098;2023-09-12T07:29:06;1.45;;;0.88;;
66421;SDS011;53228;51.380;0.098;2023-09-12T07:31:34;0.77;;;0.77;;
66421;SDS011;53228;51.380;0.098;2023-09-12T07:34:02;0.70;;;0.70;;
66421;SDS011;53228;51.380;0.098;2023-09-12T07:36:34;0.50;;;0.47;;
66421;SDS011;53228;51.380;0.098;2023-09-12T07:39:03;0.43;;;0.20;;
66421;SDS011;53228;51.380;0.098;2023-09-12T07:41:31;0.10;;;0.10;;
66421;SDS011;53228;51.380;0.098;2023-09-12T07:43:58;1.48;;;0.20;;
66421;SDS011;53228;51.380;0.098;2023-09-12T07:46:28;0.70;;;0.15;;
66421;SDS011;53228;51.380;0.098;2023-09-12T07:48:56;0.40;;;0.10;;
66421;SDS011;53228;51.380;0.098;2023-09-12T07:51:25;1.08;;;0.10;;
66421;SDS011;53228;51.380;0.098;2023-09-12T07:53:53;1.63;;;0.40;;
66421;SDS011;53228;51.380;0.098;2023-09-12T07:56:20;0.35;;;0.15;;
66421;SDS011;53228;51.380;0.098;2023-09-12T07:58:48;0.00;;;0.00;;
66421;SDS011;53228;51.380;0.098;2023-09-12T08:01:16;0.10;;;0.10;;
66421;SDS011;53228;51.380;0.098;2023-09-12T08:03:44;0.10;;;0.03;;
66421;SDS011;53228;51.380;0.098;2023-09-12T08:06:12;0.47;;;0.20;;
66421;SDS011;53228;51.380;0.098;2023-09-12T08:08:40;1.73;;;0.30;;
66421;SDS011;53228;51.380;0.098;2023-09-12T08:11:11;1.17;;;0.10;;
66421;SDS011;53228;51.380;0.098;2023-09-12T08:13:39;0.38;;;0.03;;
66421;SDS011;53228;51.380;0.098;2023-09-12T08:16:08;0.28;;;0.10;;
66421;SDS011;53228;51.380;0.098;2023-09-12T08:18:35;0.30;;;0.10;;
66421;SDS011;53228;51.380;0.098;2023-09-12T08:21:03;0.15;;;0.10;;
66421;SDS011;53228;51.380;0.098;2023-09-12T08:23:31;0.30;;;0.20;;
66421;SDS011;53228;51.380;0.098;2023-09-12T08:25:59;0.00;;;0.00;;
66421;SDS011;53228;51.380;0.098;2023-09-12T08:28:26;0.10;;;0.10;;
66421;SDS011;53228;51.380;0.098;2023-09-12T08:30:54;0.20;;;0.20;;
66421;SDS011;53228;51.380;0.098;2023-09-12T08:33:22;0.10;;;0.10;;
66421;SDS011;53228;51.380;0.098;2023-09-12T08:35:53;1.20;;;0.28;;
66421;SDS011;53228;51.380;0.098;2023-09-12T08:38:20;0.50;;;0.50;;
66421;SDS011;53228;51.380;0.098;2023-09-12T08:40:51;1.40;;;0.25;;
66421;SDS011;53228;51.380;0.098;2023-09-12T08:43:19;0.63;;;0.45;;
66421;SDS011;53228;51.380;0.098;2023-09-12T08:45:47;0.50;;;0.30;;
66421;SDS011;53228;51.380;0.098;2023-09-12T08:48:16;0.80;;;0.32;;
66421;SDS011;53228;51.380;0.098;2023-09-12T08:50:47;0.22;;;0.20;;
66421;SDS011;53228;51.380;0.098;2023-09-12T08:53:16;0.32;;;0.20;;
66421;SDS011;53228;51.380;0.098;2023-09-12T08:55:47;0.55;;;0.40;;
66421;SDS011;53228;51.380;0.098;2023-09-12T08:58:15;3.05;;;1.60;;
66421;SDS011;53228;51.380;0.098;2023-09-12T09:00:43;1.58;;;0.95;;
66421;SDS011;53228;51.380;0.098;2023-09-12T09:03:11;0.80;;;0.80;;
66421;SDS011;53228;51.380;0.098;2023-09-12T09:05:40;0.15;;;0.15;;
66421;SDS011;53228;51.380;0.098;2023-09-12T09:08:10;0.10;;;0.10;;
66421;SDS011;53228;51.380;0.098;2023-09-12T09:10:38;0.47;;;0.40;;
66421;SDS011;53228;51.380;0.098;2023-09-12T09:13:17;0.30;;;0.25;;
66421;SDS011;53228;51.380;0.098;2023-09-12T09:15:46;0.17;;;0.15;;
66421;SDS011;53228;51.380;0.098;2023-09-12T09:18:14;0.22;;;0.20;;
66421;SDS011;53228;51.380;0.098;2023-09-12T09:20:42;0.10;;;0.10;;
66421;SDS011;53228;51.380;0.098;2023-09-12T09:25:40;0.22;;;0.22;;
66421;SDS011;53228;51.380;0.098;2023-09-12T09:28:21;0.20;;;0.20;;
66421;SDS011;53228;51.380;0.098;2023-09-12T09:30:50;0.17;;;0.15;;
66421;SDS011;53228;51.380;0.098;2023-09-12T09:33:22;0.43;;;0.10;;
66421;SDS011;53228;51.380;0.098;2023-09-12T09:35:51;1.83;;;0.68;;
66421;SDS011;53228;51.380;0.098;2023-09-12T09:38:30;0.98;;;0.80;;
66421;SDS011;53228;51.380;0.098;2023-09-12T09:40:58;0.20;;;0.20;;
66421;SDS011;53228;51.380;0.098;2023-09-12T09:43:25;0.65;;;0.40;;
66421;SDS011;53228;51.380;0.098;2023-09-12T09:45:54;0.85;;;0.30;;
66421;SDS011;53228;51.380;0.098;2023-09-12T09:48:22;0.60;;;0.20;;
66421;SDS011;53228;51.380;0.098;2023-09-12T09:51:01;0.10;;;0.10;;
66421;SDS011;53228;51.380;0.098;2023-09-12T09:53:29;0.20;;;0.10;;
66421;SDS011;53228;51.380;0.098;2023-09-12T09:56:15;0.80;;;0.40;;
66421;SDS011;53228;51.380;0.098;2023-09-12T10:01:27;1.15;;;0.30;;
66421;SDS011;53228;51.380;0.098;2023-09-12T10:03:57;0.80;;;0.40;;
66421;SDS011;53228;51.380;0.098;2023-09-12T10:06:27;0.88;;;0.40;;
66421;SDS011;53228;51.380;0.098;2023-09-12T10:08:56;2.10;;;0.45;;
66421;SDS011;53228;51.380;0.098;2023-09-12T10:11:27;1.13;;;0.30;;
66421;SDS011;53228;51.380;0.098;2023-09-12T10:13:59;0.10;;;0.10;;
66421;SDS011;53228;51.380;0.098;2023-09-12T10:16:32;0.30;;;0.30;;
66421;SDS011;53228;51.380;0.098;2023-09-12T10:24:17;0.20;;;0.20;;
66421;SDS011;53228;51.380;0.098;2023-09-12T10:26:49;0.20;;;0.20;;
66421;SDS011;53228;51.380;0.098;2023-09-12T10:29:17;0.22;;;0.20;;
66421;SDS011;53228;51.380;0.098;2023-09-12T10:31:46;0.30;;;0.30;;
66421;SDS011;53228;51.380;0.098;2023-09-12T10:34:14;0.25;;;0.22;;
66421;SDS011;53228;51.380;0.098;2023-09-12T10:36:45;0.30;;;0.30;;
66421;SDS011;53228;51.380;0.098;2023-09-12T10:39:14;0.30;;;0.30;;
66421;SDS011;53228;51.380;0.098;2023-09-12T10:41:42;1.75;;;0.60;;
66421;SDS011;53228;51.380;0.098;2023-09-12T10:44:10;0.63;;;0.50;;
66421;SDS011;53228;51.380;0.098;2023-09-12T10:46:40;1.80;;;0.30;;
66421;SDS011;53228;51.380;0.098;2023-09-12T10:49:08;0.17;;;0.15;;
66421;SDS011;53228;51.380;0.098;2023-09-12T10:51:40;0.20;;;0.20;;
66421;SDS011;53228;51.380;0.098;2023-09-12T10:54:12;0.28;;;0.28;;
66421;SDS011;53228;51.380;0.098;2023-09-12T10:56:41;1.00;;;0.20;;
66421;SDS011;53228;51.380;0.098;2023-09-12T11:01:40;0.68;;;0.40;;
66421;SDS011;53228;51.380;0.098;2023-09-12T11:06:46;1.45;;;1.33;;
66421;SDS011;53228;51.380;0.098;2023-09-12T11:09:18;2.40;;;1.33;;
66421;SDS011;53228;51.380;0.098;2023-09-12T11:11:54;3.75;;;2.10;;
66421;SDS011;53228;51.380;0.098;2023-09-12T11:14:29;2.28;;;1.70;;
66421;SDS011;53228;51.380;0.098;2023-09-12T11:19:44;1.80;;;1.48;;
66421;SDS011;53228;51.380;0.098;2023-09-12T11:22:22;2.92;;;2.00;;
66421;SDS011;53228;51.380;0.098;2023-09-12T11:24:51;4.70;;;2.47;;
66421;SDS011;53228;51.380;0.098;2023-09-12T11:27:20;2.92;;;2.22;;
66421;SDS011;53228;51.380;0.098;2023-09-12T11:29:49;5.45;;;2.60;;
66421;SDS011;53228;51.380;0.098;2023-09-12T11:32:26;3.10;;;1.60;;
66421;SDS011;53228;51.380;0.098;2023-09-12T11:34:57;2.28;;;1.58;;
66421;SDS011;53228;51.380;0.098;2023-09-12T11:37:26;1.98;;;1.20;;
66421;SDS011;53228;51.380;0.098;2023-09-12T11:39:55;1.33;;;1.00;;
66421;SDS011;53228;51.380;0.098;2023-09-12T11:42:24;1.42;;;1.10;;
66421;SDS011;53228;51.380;0.098;2023-09-12T11:44:57;1.77;;;1.20;;
66421;SDS011;53228;51.380;0.098;2023-09-12T11:47:25;1.50;;;1.00;;
66421;SDS011;53228;51.380;0.098;2023-09-12T11:49:54;1.05;;;0.73;;
66421;SDS011;53228;51.380;0.098;2023-09-12T11:52:21;0.65;;;0.60;;
66421;SDS011;53228;51.380;0.098;2023-09-12T11:54:52;0.90;;;0.70;;
66421;SDS011;53228;51.380;0.098;2023-09-12T11:57:21;0.50;;;0.47;;
66421;SDS011;53228;51.380;0.098;2023-09-12T11:59:49;0.63;;;0.63;;
66421;SDS011;53228;51.380;0.098;2023-09-12T12:02:18;0.70;;;0.57;;
66421;SDS011;53228;51.380;0.098;2023-09-12T12:04:46;1.20;;;1.10;;
66421;SDS011;53228;51.380;0.098;2023-09-12T12:07:14;1.33;;;1.23;;
66421;SDS011;53228;51.380;0.098;2023-09-12T12:09:42;2.72;;;1.42;;
66421;SDS011;53228;51.380;0.098;2023-09-12T12:12:12;2.08;;;1.27;;
66421;SDS011;53228;51.380;0.098;2023-09-12T12:14:41;2.22;;;1.50;;
66421;SDS011;53228;51.380;0.098;2023-09-12T12:17:09;4.35;;;1.77;;
66421;SDS011;53228;51.380;0.098;2023-09-12T12:19:38;2.60;;;1.70;;
66421;SDS011;53228;51.380;0.098;2023-09-12T12:22:06;1.65;;;1.33;;
66421;SDS011;53228;51.380;0.098;2023-09-12T12:24:39;1.08;;;0.95;;
66421;SDS011;53228;51.380;0.098;2023-09-12T12:27:08;1.15;;;0.95;;
66421;SDS011;53228;51.380;0.098;2023-09-12T12:29:38;1.50;;;1.00;;
66421;SDS011;53228;51.380;0.098;2023-09-12T12:32:10;2.78;;;0.90;;
66421;SDS011;53228;51.380;0.098;2023-09-12T12:34:42;1.08;;;0.98;;
66421;SDS011;53228;51.380;0.098;2023-09-12T12:37:36;2.10;;;1.55;;
66421;SDS011;53228;51.380;0.098;2023-09-12T12:40:04;1.95;;;1.60;;
66421;SDS011;53228;51.380;0.098;2023-09-12T12:42:34;3.05;;;1.80;;
66421;SDS011;53228;51.380;0.098;2023-09-12T12:45:21;2.38;;;2.03;;
66421;SDS011;53228;51.380;0.098;2023-09-12T12:47:51;2.75;;;1.92;;
66421;SDS011;53228;51.380;0.098;2023-09-12T12:50:22;3.50;;;2.40;;
66421;SDS011;53228;51.380;0.098;2023-09-12T12:52:49;1.70;;;1.30;;
66421;SDS011;53228;51.380;0.098;2023-09-12T12:55:17;2.70;;;2.08;;
66421;SDS011;53228;51.380;0.098;2023-09-12T12:57:47;1.60;;;1.30;;
66421;SDS011;53228;51.380;0.098;2023-09-12T13:00:16;1.55;;;1.17;;
66421;SDS011;53228;51.380;0.098;2023-09-12T13:02:46;0.80;;;0.70;;
66421;SDS011;53228;51.380;0.098;2023-09-12T13:05:20;1.13;;;0.63;;
66421;SDS011;53228;51.380;0.098;2023-09-12T13:07:55;1.92;;;0.80;;
66421;SDS011;53228;51.380;0.098;2023-09-12T13:10:23;1.35;;;0.90;;
66421;SDS011;53228;51.380;0.098;2023-09-12T13:12:51;0.93;;;0.75;;
66421;SDS011;53228;51.380;0.098;2023-09-12T13:15:18;0.63;;;0.60;;
66421;SDS011;53228;51.380;0.098;2023-09-12T13:17:46;1.45;;;0.93;;
66421;SDS011;53228;51.380;0.098;2023-09-12T13:20:14;0.85;;;0.85;;
66421;SDS011;53228;51.380;0.098;2023-09-12T13:22:41;1.08;;;0.70;;
66421;SDS011;53228;51.380;0.098;2023-09-12T13:25:10;1.00;;;0.90;;
66421;SDS011;53228;51.380;0.098;2023-09-12T13:27:38;1.52;;;0.80;;
66421;SDS011;53228;51.380;0.098;2023-09-12T13:30:06;1.20;;;1.05;;
66421;SDS011;53228;51.380;0.098;2023-09-12T13:32:34;1.00;;;0.90;;
66421;SDS011;53228;51.380;0.098;2023-09-12T13:35:01;1.38;;;1.08;;
66421;SDS011;53228;51.380;0.098;2023-09-12T13:37:29;1.08;;;0.82;;
66421;SDS011;53228;51.380;0.098;2023-09-12T13:39:57;1.15;;;1.08;;
66421;SDS011;53228;51.380;0.098;2023-09-12T13:42:26;1.65;;;0.98;;
66421;SDS011;53228;51.380;0.098;2023-09-12T13:44:58;2.13;;;1.50;;
66421;SDS011;53228;51.380;0.098;2023-09-12T13:47:25;2.50;;;1.15;;
66421;SDS011;53228;51.380;0.098;2023-09-12T13:49:53;1.52;;;1.40;;
66421;SDS011;53228;51.380;0.098;2023-09-12T13:52:20;1.70;;;1.45;;
66421;SDS011;53228;51.380;0.098;2023-09-12T13:54:48;1.90;;;1.20;;
66421;SDS011;53228;51.380;0.098;2023-09-12T13:57:16;1.20;;;1.10;;
66421;SDS011;53228;51.380;0.098;2023-09-12T13:59:44;1.85;;;1.00;;
66421;SDS011;53228;51.380;0.098;2023-09-12T14:02:13;2.33;;;1.17;;
66421;SDS011;53228;51.380;0.098;2023-09-12T14:04:41;2.85;;;1.35;;
66421;SDS011;53228;51.380;0.098;2023-09-12T14:07:09;1.67;;;1.33;;
66421;SDS011;53228;51.380;0.098;2023-09-12T14:09:38;1.58;;;1.45;;
66421;SDS011;53228;51.380;0.098;2023-09-12T14:12:07;2.70;;;1.60;;
66421;SDS011;53228;51.380;0.098;2023-09-12T14:14:50;1.27;;;0.90;;
66421;SDS011;53228;51.380;0.098;2023-09-12T14:17:33;0.80;;;0.60;;
66421;SDS011;53228;51.380;0.098;2023-09-12T14:20:02;0.50;;;0.50;;
66421;SDS011;53228;51.380;0.098;2023-09-12T14:22:31;0.80;;;0.80;;
66421;SDS011;53228;51.380;0.098;2023-09-12T14:24:59;0.93;;;0.80;;
66421;SDS011;53228;51.380;0.098;2023-09-12T14:27:30;0.77;;;0.60;;
66421;SDS011;53228;51.380;0.098;2023-09-12T14:29:57;1.42;;;0.80;;
66421;SDS011;53228;51.380;0.098;2023-09-12T14:32:26;1.33;;;0.82;;
66421;SDS011;53228;51.380;0.098;2023-09-12T14:34:55;2.33;;;0.82;;
66421;SDS011;53228;51.380;0.098;2023-09-12T14:37:24;1.42;;;0.98;;
66421;SDS011;53228;51.380;0.098;2023-09-12T14:39:54;1.33;;;1.05;;
66421;SDS011;53228;51.380;0.098;2023-09-12T14:42:25;2.05;;;0.93;;
66421;SDS011;53228;51.380;0.098;2023-09-12T14:44:52;2.20;;;1.25;;
66421;SDS011;53228;51.380;0.098;2023-09-12T14:47:20;2.20;;;1.27;;
66421;SDS011;53228;51.380;0.098;2023-09-12T14:49:48;1.38;;;1.27;;
66421;SDS011;53228;51.380;0.098;2023-09-12T14:52:18;1.17;;;1.08;;
66421;SDS011;53228;51.380;0.098;2023-09-12T14:54:52;1.83;;;1.00;;
66421;SDS011;53228;51.380;0.098;2023-09-12T14:57:20;7.15;;;1.10;;
66421;SDS011;53228;51.380;0.098;2023-09-12T14:59:50;2.35;;;1.27;;
66421;SDS011;53228;51.380;0.098;2023-09-12T15:02:18;2.17;;;1.50;;
66421;SDS011;53228;51.380;0.098;2023-09-12T15:04:46;1.40;;;1.30;;
66421;SDS011;53228;51.380;0.098;2023-09-12T15:07:14;3.25;;;1.73;;
66421;SDS011;53228;51.380;0.098;2023-09-12T15:09:41;3.10;;;1.42;;
66421;SDS011;53228;51.380;0.098;2023-09-12T15:12:09;1.55;;;1.33;;
66421;SDS011;53228;51.380;0.098;2023-09-12T15:14:37;2.88;;;1.67;;
66421;SDS011;53228;51.380;0.098;2023-09-12T15:17:04;2.00;;;1.70;;
66421;SDS011;53228;51.380;0.098;2023-09-12T15:19:32;10.20;;;2.15;;